sensor_id;sensor_type;location;lat;lon;timestamp;pressure;altitude;pressure_sealevel;temperature;humidity
40117;BME280;25829;50.228;18.936;2023-02-17T00:02:05;99141.78;;;-1.01;70.90
40117;BME280;25829;50.228;18.936;2023-02-17T00:05:06;99144.03;;;-0.96;70.71
40117;BME280;25829;50.228;18.936;2023-02-17T00:08:13;99144.25;;;-0.99;70.31
40117;BME280;25829;50.228;18.936;2023-02-17T00:11:14;99144.25;;;-0.99;70.76
40117;BME280;25829;50.228;18.936;2023-02-17T00:14:16;99137.06;;;-0.96;70.57
40117;BME280;25829;50.228;18.936;2023-02-17T00:17:17;99142.13;;;-0.94;70.57
40117;BME280;25829;50.228;18.936;2023-02-17T00:20:18;99145.34;;;-0.91;71.00
40117;BME280;25829;50.228;18.936;2023-02-17T00:23:19;99142.47;;;-0.88;70.68
40117;BME280;25829;50.228;18.936;2023-02-17T00:26:20;99138.75;;;-0.84;71.03
40117;BME280;25829;50.228;18.936;2023-02-17T00:29:21;99138.25;;;-0.77;70.68
40117;BME280;25829;50.228;18.936;2023-02-17T00:32:22;99137.31;;;-0.76;70.66
40117;BME280;25829;50.228;18.936;2023-02-17T00:35:23;99130.94;;;-0.72;70.90
40117;BME280;25829;50.228;18.936;2023-02-17T00:38:24;99127.41;;;-0.71;70.63
40117;BME280;25829;50.228;18.936;2023-02-17T00:41:26;99135.09;;;-0.70;70.95
40117;BME280;25829;50.228;18.936;2023-02-17T00:44:28;99135.09;;;-0.70;70.51
40117;BME280;25829;50.228;18.936;2023-02-17T00:47:28;99130.47;;;-0.66;71.00
40117;BME280;25829;50.228;18.936;2023-02-17T00:50:29;99129.97;;;-0.60;70.84
40117;BME280;25829;50.228;18.936;2023-02-17T00:53:30;99133.75;;;-0.64;70.23
40117;BME280;25829;50.228;18.936;2023-02-17T00:56:31;99125.41;;;-0.68;71.11
40117;BME280;25829;50.228;18.936;2023-02-17T00:59:31;99115.38;;;-0.61;70.87
40117;BME280;25829;50.228;18.936;2023-02-17T01:02:33;99111.59;;;-0.57;71.24
40117;BME280;25829;50.228;18.936;2023-02-17T01:05:42;99107.59;;;-0.50;71.41
40117;BME280;25829;50.228;18.936;2023-02-17T01:08:43;99102.06;;;-0.45;70.97
40117;BME280;25829;50.228;18.936;2023-02-17T01:11:44;99107.81;;;-0.42;70.89
40117;BME280;25829;50.228;18.936;2023-02-17T01:14:44;99109.59;;;-0.42;71.13
40117;BME280;25829;50.228;18.936;2023-02-17T01:17:45;99100.38;;;-0.46;71.23
40117;BME280;25829;50.228;18.936;2023-02-17T01:20:46;99105.00;;;-0.50;71.50
40117;BME280;25829;50.228;18.936;2023-02-17T01:23:51;99100.53;;;-0.48;71.47
40117;BME280;25829;50.228;18.936;2023-02-17T01:26:52;99096.88;;;-0.45;71.41
40117;BME280;25829;50.228;18.936;2023-02-17T01:29:53;99107.09;;;-0.44;71.29
40117;BME280;25829;50.228;18.936;2023-02-17T01:32:54;99093.44;;;-0.46;71.26
40117;BME280;25829;50.228;18.936;2023-02-17T01:36:01;99097.56;;;-0.43;71.30
40117;BME280;25829;50.228;18.936;2023-02-17T01:39:02;99083.66;;;-0.42;70.95
40117;BME280;25829;50.228;18.936;2023-02-17T01:42:03;99085.41;;;-0.43;71.19
40117;BME280;25829;50.228;18.936;2023-02-17T01:48:21;99102.28;;;-0.48;71.16
40117;BME280;25829;50.228;18.936;2023-02-17T01:51:30;99098.03;;;-0.49;70.90
40117;BME280;25829;50.228;18.936;2023-02-17T01:54:37;99086.03;;;-0.50;71.09
40117;BME280;25829;50.228;18.936;2023-02-17T01:57:43;99085.34;;;-0.52;70.49
40117;BME280;25829;50.228;18.936;2023-02-17T02:00:46;99089.81;;;-0.54;71.24
40117;BME280;25829;50.228;18.936;2023-02-17T02:03:49;99085.59;;;-0.55;70.90
40117;BME280;25829;50.228;18.936;2023-02-17T02:06:51;99089.22;;;-0.58;71.18
40117;BME280;25829;50.228;18.936;2023-02-17T02:09:56;99081.13;;;-0.65;71.14
40117;BME280;25829;50.228;18.936;2023-02-17T02:33:15;99070.19;;;-0.79;71.95
40117;BME280;25829;50.228;18.936;2023-02-17T02:36:33;99063.94;;;-0.77;71.69
40117;BME280;25829;50.228;18.936;2023-02-17T02:39:40;99058.50;;;-0.74;71.41
40117;BME280;25829;50.228;18.936;2023-02-17T02:42:43;99058.28;;;-0.82;71.55
40117;BME280;25829;50.228;18.936;2023-02-17T02:45:45;99047.50;;;-0.87;71.77
40117;BME280;25829;50.228;18.936;2023-02-17T02:48:47;99041.47;;;-0.88;72.45
40117;BME280;25829;50.228;18.936;2023-02-17T02:55:16;99045.09;;;-0.79;72.02
40117;BME280;25829;50.228;18.936;2023-02-17T03:02:10;99028.94;;;-0.71;72.86
40117;BME280;25829;50.228;18.936;2023-02-17T03:05:22;99045.06;;;-0.68;72.63
40117;BME280;25829;50.228;18.936;2023-02-17T03:08:38;99047.28;;;-0.63;72.86
40117;BME280;25829;50.228;18.936;2023-02-17T03:11:41;99035.63;;;-0.57;72.38
40117;BME280;25829;50.228;18.936;2023-02-17T03:14:42;99029.25;;;-0.53;72.59
40117;BME280;25829;50.228;18.936;2023-02-17T03:21:13;99017.56;;;-0.48;72.35
40117;BME280;25829;50.228;18.936;2023-02-17T03:24:17;99027.56;;;-0.43;72.33
40117;BME280;25829;50.228;18.936;2023-02-17T03:27:18;99022.13;;;-0.40;72.31
40117;BME280;25829;50.228;18.936;2023-02-17T03:30:19;99029.09;;;-0.41;72.24
40117;BME280;25829;50.228;18.936;2023-02-17T03:33:20;99028.75;;;-0.47;72.63
40117;BME280;25829;50.228;18.936;2023-02-17T03:36:20;99018.97;;;-0.44;72.43
40117;BME280;25829;50.228;18.936;2023-02-17T03:39:21;99038.41;;;-0.38;72.68
40117;BME280;25829;50.228;18.936;2023-02-17T03:42:22;99026.84;;;-0.34;72.15
40117;BME280;25829;50.228;18.936;2023-02-17T03:45:23;99020.44;;;-0.30;72.55
40117;BME280;25829;50.228;18.936;2023-02-17T03:48:23;99015.84;;;-0.26;72.32
40117;BME280;25829;50.228;18.936;2023-02-17T03:51:24;99027.03;;;-0.26;72.29
40117;BME280;25829;50.228;18.936;2023-02-17T03:54:26;99024.44;;;-0.26;71.97
40117;BME280;25829;50.228;18.936;2023-02-17T03:57:26;99017.03;;;-0.30;72.59
40117;BME280;25829;50.228;18.936;2023-02-17T04:00:27;99009.50;;;-0.33;72.75
40117;BME280;25829;50.228;18.936;2023-02-17T04:03:28;99021.97;;;-0.27;72.86
40117;BME280;25829;50.228;18.936;2023-02-17T04:06:29;99012.19;;;-0.24;73.04
40117;BME280;25829;50.228;18.936;2023-02-17T04:09:29;99007.44;;;-0.19;72.74
40117;BME280;25829;50.228;18.936;2023-02-17T04:12:30;99002.56;;;-0.12;72.66
40117;BME280;25829;50.228;18.936;2023-02-17T04:15:31;99007.81;;;-0.02;73.07
40117;BME280;25829;50.228;18.936;2023-02-17T04:18:32;99007.00;;;-0.03;72.44
40117;BME280;25829;50.228;18.936;2023-02-17T04:21:33;99009.47;;;-0.01;72.84
40117;BME280;25829;50.228;18.936;2023-02-17T04:24:35;99005.94;;;-0.00;72.47
40117;BME280;25829;50.228;18.936;2023-02-17T04:27:37;99006.44;;;-0.06;73.00
40117;BME280;25829;50.228;18.936;2023-02-17T04:30:38;99012.19;;;-0.03;73.18
40117;BME280;25829;50.228;18.936;2023-02-17T04:33:41;99000.09;;;0.07;73.27
40117;BME280;25829;50.228;18.936;2023-02-17T04:36:42;99003.69;;;0.16;73.15
40117;BME280;25829;50.228;18.936;2023-02-17T04:39:43;98996.22;;;0.23;73.30
40117;BME280;25829;50.228;18.936;2023-02-17T04:42:44;98997.25;;;0.31;73.31
40117;BME280;25829;50.228;18.936;2023-02-17T04:45:44;98996.72;;;0.38;72.37
40117;BME280;25829;50.228;18.936;2023-02-17T04:48:45;98999.03;;;0.41;72.72
40117;BME280;25829;50.228;18.936;2023-02-17T04:51:46;98989.94;;;0.46;72.99
40117;BME280;25829;50.228;18.936;2023-02-17T04:54:46;98986.00;;;0.52;72.82
40117;BME280;25829;50.228;18.936;2023-02-17T04:57:47;98986.16;;;0.60;72.84
40117;BME280;25829;50.228;18.936;2023-02-17T05:00:49;98976.19;;;0.65;72.67
40117;BME280;25829;50.228;18.936;2023-02-17T05:03:50;98968.03;;;0.70;73.04
40117;BME280;25829;50.228;18.936;2023-02-17T05:06:51;98967.88;;;0.71;72.50
40117;BME280;25829;50.228;18.936;2023-02-17T05:09:52;98947.91;;;0.72;72.80
40117;BME280;25829;50.228;18.936;2023-02-17T05:12:53;98950.00;;;0.78;72.59
40117;BME280;25829;50.228;18.936;2023-02-17T05:15:54;98950.00;;;0.78;72.32
40117;BME280;25829;50.228;18.936;2023-02-17T05:18:55;98946.31;;;0.80;72.41
40117;BME280;25829;50.228;18.936;2023-02-17T05:21:56;98940.59;;;0.87;72.75
40117;BME280;25829;50.228;18.936;2023-02-17T05:24:57;98952.09;;;0.94;72.75
40117;BME280;25829;50.228;18.936;2023-02-17T05:27:58;98953.19;;;1.01;72.53
40117;BME280;25829;50.228;18.936;2023-02-17T05:30:59;98963.06;;;1.07;72.96
40117;BME280;25829;50.228;18.936;2023-02-17T05:34:00;98966.22;;;1.11;72.46
40117;BME280;25829;50.228;18.936;2023-02-17T05:37:01;98965.78;;;1.15;72.36
40117;BME280;25829;50.228;18.936;2023-02-17T05:40:02;98964.81;;;1.16;72.74
40117;BME280;25829;50.228;18.936;2023-02-17T05:43:03;98956.91;;;1.18;73.03
40117;BME280;25829;50.228;18.936;2023-02-17T05:46:04;98955.25;;;1.26;73.02
40117;BME280;25829;50.228;18.936;2023-02-17T05:49:04;98951.72;;;1.37;73.29
40117;BME280;25829;50.228;18.936;2023-02-17T05:52:05;98948.31;;;1.46;73.32
40117;BME280;25829;50.228;18.936;2023-02-17T05:55:06;98945.69;;;1.56;72.55
40117;BME280;25829;50.228;18.936;2023-02-17T05:58:07;98949.94;;;1.57;72.48
40117;BME280;25829;50.228;18.936;2023-02-17T06:01:09;98947.88;;;1.61;72.34
40117;BME280;25829;50.228;18.936;2023-02-17T06:04:10;98945.81;;;1.64;71.96
40117;BME280;25829;50.228;18.936;2023-02-17T06:07:11;98947.59;;;1.64;72.69
40117;BME280;25829;50.228;18.936;2023-02-17T06:10:12;98941.03;;;1.69;72.59
40117;BME280;25829;50.228;18.936;2023-02-17T06:13:13;98935.41;;;1.74;72.66
40117;BME280;25829;50.228;18.936;2023-02-17T06:16:13;98938.41;;;1.79;72.65
40117;BME280;25829;50.228;18.936;2023-02-17T06:19:14;98931.28;;;1.91;72.70
40117;BME280;25829;50.228;18.936;2023-02-17T06:22:15;98932.19;;;1.99;73.05
40117;BME280;25829;50.228;18.936;2023-02-17T06:25:16;98921.78;;;2.09;72.70
40117;BME280;25829;50.228;18.936;2023-02-17T06:28:16;98921.59;;;2.20;72.48
40117;BME280;25829;50.228;18.936;2023-02-17T06:31:17;98919.75;;;2.31;72.09
40117;BME280;25829;50.228;18.936;2023-02-17T06:34:18;98924.13;;;2.40;72.22
40117;BME280;25829;50.228;18.936;2023-02-17T06:37:19;98930.25;;;2.48;71.79
40117;BME280;25829;50.228;18.936;2023-02-17T06:40:20;98919.13;;;2.56;71.76
40117;BME280;25829;50.228;18.936;2023-02-17T06:43:20;98913.03;;;2.65;71.60
40117;BME280;25829;50.228;18.936;2023-02-17T06:46:21;98907.09;;;2.73;71.53
40117;BME280;25829;50.228;18.936;2023-02-17T06:49:22;98905.69;;;2.79;71.07
40117;BME280;25829;50.228;18.936;2023-02-17T06:52:23;98906.44;;;2.89;70.88
40117;BME280;25829;50.228;18.936;2023-02-17T06:55:23;98912.56;;;2.97;70.82
40117;BME280;25829;50.228;18.936;2023-02-17T06:58:24;98910.31;;;3.03;70.94
40117;BME280;25829;50.228;18.936;2023-02-17T07:01:25;98912.34;;;3.09;70.40
40117;BME280;25829;50.228;18.936;2023-02-17T07:04:26;98916.97;;;3.15;70.35
40117;BME280;25829;50.228;18.936;2023-02-17T07:07:27;98905.09;;;3.20;70.44
40117;BME280;25829;50.228;18.936;2023-02-17T07:10:28;98907.13;;;3.27;70.25
40117;BME280;25829;50.228;18.936;2023-02-17T07:13:29;98906.38;;;3.34;70.00
40117;BME280;25829;50.228;18.936;2023-02-17T07:16:30;98910.84;;;3.42;69.73
40117;BME280;25829;50.228;18.936;2023-02-17T07:19:30;98921.09;;;3.53;69.59
40117;BME280;25829;50.228;18.936;2023-02-17T07:22:31;98914.81;;;3.64;69.66
40117;BME280;25829;50.228;18.936;2023-02-17T07:25:32;98910.44;;;3.73;69.55
40117;BME280;25829;50.228;18.936;2023-02-17T07:28:34;98916.41;;;3.83;69.24
40117;BME280;25829;50.228;18.936;2023-02-17T07:31:36;98903.41;;;3.91;69.18
40117;BME280;25829;50.228;18.936;2023-02-17T07:34:36;98905.09;;;4.00;68.81
40117;BME280;25829;50.228;18.936;2023-02-17T07:37:38;98904.16;;;4.09;68.82
40117;BME280;25829;50.228;18.936;2023-02-17T07:40:39;98901.94;;;4.23;68.61
40117;BME280;25829;50.228;18.936;2023-02-17T07:43:40;98907.19;;;4.31;68.32
40117;BME280;25829;50.228;18.936;2023-02-17T07:46:42;98914.25;;;4.38;68.18
40117;BME280;25829;50.228;18.936;2023-02-17T07:49:43;98903.34;;;4.43;68.17
40117;BME280;25829;50.228;18.936;2023-02-17T07:52:44;98886.38;;;4.47;67.80
40117;BME280;25829;50.228;18.936;2023-02-17T07:55:45;98878.88;;;4.52;67.75
40117;BME280;25829;50.228;18.936;2023-02-17T07:58:45;98885.91;;;4.60;67.85
40117;BME280;25829;50.228;18.936;2023-02-17T08:01:47;98885.97;;;4.68;67.68
40117;BME280;25829;50.228;18.936;2023-02-17T08:04:51;98889.06;;;4.72;67.25
40117;BME280;25829;50.228;18.936;2023-02-17T08:07:52;98884.84;;;4.79;67.53
40117;BME280;25829;50.228;18.936;2023-02-17T08:11:14;98867.84;;;4.83;67.47
40117;BME280;25829;50.228;18.936;2023-02-17T08:14:34;98876.50;;;4.83;66.73
40117;BME280;25829;50.228;18.936;2023-02-17T08:17:35;98873.56;;;4.86;66.68
40117;BME280;25829;50.228;18.936;2023-02-17T08:20:35;98877.81;;;4.87;66.57
40117;BME280;25829;50.228;18.936;2023-02-17T08:23:36;98870.97;;;4.86;66.66
40117;BME280;25829;50.228;18.936;2023-02-17T08:26:37;98867.84;;;4.91;66.74
40117;BME280;25829;50.228;18.936;2023-02-17T08:29:39;98865.41;;;4.89;66.56
40117;BME280;25829;50.228;18.936;2023-02-17T08:32:40;98857.06;;;4.86;66.47
40117;BME280;25829;50.228;18.936;2023-02-17T08:35:40;98867.72;;;4.84;67.03
40117;BME280;25829;50.228;18.936;2023-02-17T08:38:41;98873.25;;;4.81;67.84
40117;BME280;25829;50.228;18.936;2023-02-17T08:41:44;98880.59;;;4.78;67.71
40117;BME280;25829;50.228;18.936;2023-02-17T08:44:46;98880.91;;;4.83;68.60
40117;BME280;25829;50.228;18.936;2023-02-17T08:47:46;98873.56;;;4.78;68.34
40117;BME280;25829;50.228;18.936;2023-02-17T08:50:50;98870.47;;;4.75;69.04
40117;BME280;25829;50.228;18.936;2023-02-17T08:53:52;98870.47;;;4.75;69.10
40117;BME280;25829;50.228;18.936;2023-02-17T08:56:56;98864.25;;;4.76;69.18
40117;BME280;25829;50.228;18.936;2023-02-17T08:59:58;98866.38;;;4.80;68.98
40117;BME280;25829;50.228;18.936;2023-02-17T09:02:58;98860.50;;;4.86;69.00
40117;BME280;25829;50.228;18.936;2023-02-17T09:06:02;98867.34;;;4.87;68.77
40117;BME280;25829;50.228;18.936;2023-02-17T09:12:46;98884.56;;;4.98;68.76
40117;BME280;25829;50.228;18.936;2023-02-17T09:15:47;98881.78;;;5.00;68.49
40117;BME280;25829;50.228;18.936;2023-02-17T09:18:55;98875.41;;;5.02;68.03
40117;BME280;25829;50.228;18.936;2023-02-17T09:21:56;98863.78;;;5.05;68.60
40117;BME280;25829;50.228;18.936;2023-02-17T09:24:56;98853.69;;;5.02;68.14
40117;BME280;25829;50.228;18.936;2023-02-17T09:27:57;98865.75;;;5.03;69.07
40117;BME280;25829;50.228;18.936;2023-02-17T09:30:58;98858.72;;;5.03;69.24
40117;BME280;25829;50.228;18.936;2023-02-17T09:34:07;98848.59;;;5.08;69.64
40117;BME280;25829;50.228;18.936;2023-02-17T09:37:11;98848.28;;;5.11;70.08
40117;BME280;25829;50.228;18.936;2023-02-17T09:40:42;98841.91;;;5.14;69.92
40117;BME280;25829;50.228;18.936;2023-02-17T09:43:48;98837.47;;;5.15;70.25
40117;BME280;25829;50.228;18.936;2023-02-17T09:59:05;98846.81;;;5.17;71.10
40117;BME280;25829;50.228;18.936;2023-02-17T10:02:15;98838.66;;;5.12;70.86
40117;BME280;25829;50.228;18.936;2023-02-17T10:05:22;98845.97;;;5.08;70.58
40117;BME280;25829;50.228;18.936;2023-02-17T10:08:29;98845.34;;;5.06;70.70
40117;BME280;25829;50.228;18.936;2023-02-17T10:11:40;98851.22;;;5.08;70.78
40117;BME280;25829;50.228;18.936;2023-02-17T10:15:14;98849.25;;;5.10;70.78
40117;BME280;25829;50.228;18.936;2023-02-17T10:18:29;98843.53;;;5.15;70.52
40117;BME280;25829;50.228;18.936;2023-02-17T10:21:35;98839.78;;;5.18;70.83
40117;BME280;25829;50.228;18.936;2023-02-17T10:24:47;98835.22;;;5.20;70.37
40117;BME280;25829;50.228;18.936;2023-02-17T10:28:01;98832.28;;;5.23;70.57
40117;BME280;25829;50.228;18.936;2023-02-17T10:31:19;98833.09;;;5.23;70.36
40117;BME280;25829;50.228;18.936;2023-02-17T10:34:36;98830.28;;;5.25;70.24
40117;BME280;25829;50.228;18.936;2023-02-17T10:37:45;98819.19;;;5.23;69.78
40117;BME280;25829;50.228;18.936;2023-02-17T10:40:49;98818.19;;;5.24;70.04
40117;BME280;25829;50.228;18.936;2023-02-17T10:43:50;98804.63;;;5.28;69.64
40117;BME280;25829;50.228;18.936;2023-02-17T10:50:21;98794.50;;;5.33;69.51
40117;BME280;25829;50.228;18.936;2023-02-17T11:08:34;98757.09;;;5.72;69.17
40117;BME280;25829;50.228;18.936;2023-02-17T11:15:03;98735.78;;;5.83;68.80
40117;BME280;25829;50.228;18.936;2023-02-17T11:18:19;98729.41;;;5.86;68.55
40117;BME280;25829;50.228;18.936;2023-02-17T11:21:23;98717.94;;;5.87;68.48
40117;BME280;25829;50.228;18.936;2023-02-17T11:24:28;98706.50;;;5.88;68.50
40117;BME280;25829;50.228;18.936;2023-02-17T11:27:29;98707.97;;;5.91;68.04
40117;BME280;25829;50.228;18.936;2023-02-17T11:30:32;98707.16;;;5.90;68.07
40117;BME280;25829;50.228;18.936;2023-02-17T11:33:36;98707.63;;;5.94;68.22
40117;BME280;25829;50.228;18.936;2023-02-17T11:43:59;98695.19;;;5.96;67.81
40117;BME280;25829;50.228;18.936;2023-02-17T11:47:47;98692.72;;;5.94;67.84
40117;BME280;25829;50.228;18.936;2023-02-17T11:51:45;98686.19;;;5.90;68.20
40117;BME280;25829;50.228;18.936;2023-02-17T11:54:25;98688.50;;;5.85;68.17
40117;BME280;25829;50.228;18.936;2023-02-17T11:57:39;98679.66;;;5.86;68.59
40117;BME280;25829;50.228;18.936;2023-02-17T12:01:14;98681.97;;;5.89;68.45
40117;BME280;25829;50.228;18.936;2023-02-17T12:04:45;98681.16;;;5.89;68.25
40117;BME280;25829;50.228;18.936;2023-02-17T12:11:34;98666.56;;;5.86;68.63
40117;BME280;25829;50.228;18.936;2023-02-17T12:22:18;98672.31;;;5.90;68.28
40117;BME280;25829;50.228;18.936;2023-02-17T12:25:29;98663.44;;;5.91;69.03
40117;BME280;25829;50.228;18.936;2023-02-17T12:28:47;98662.28;;;5.93;68.50
40117;BME280;25829;50.228;18.936;2023-02-17T12:35:18;98646.59;;;5.93;68.33
40117;BME280;25829;50.228;18.936;2023-02-17T12:38:38;98643.97;;;5.93;68.73
40117;BME280;25829;50.228;18.936;2023-02-17T12:41:52;98644.63;;;5.87;68.32
40117;BME280;25829;50.228;18.936;2023-02-17T12:45:09;98633.19;;;5.88;68.57
40117;BME280;25829;50.228;18.936;2023-02-17T13:01:16;98611.72;;;5.93;68.36
40117;BME280;25829;50.228;18.936;2023-02-17T13:04:22;98601.25;;;5.93;68.83
40117;BME280;25829;50.228;18.936;2023-02-17T13:11:12;98579.16;;;5.95;69.03
40117;BME280;25829;50.228;18.936;2023-02-17T13:17:53;98565.34;;;6.01;69.12
40117;BME280;25829;50.228;18.936;2023-02-17T13:21:24;98561.38;;;6.05;69.01
40117;BME280;25829;50.228;18.936;2023-02-17T13:24:35;98553.63;;;6.12;69.04
40117;BME280;25829;50.228;18.936;2023-02-17T13:27:39;98557.34;;;6.18;69.03
40117;BME280;25829;50.228;18.936;2023-02-17T13:30:42;98550.75;;;6.22;68.86
40117;BME280;25829;50.228;18.936;2023-02-17T13:33:55;98532.53;;;6.28;69.03
40117;BME280;25829;50.228;18.936;2023-02-17T13:36:57;98531.81;;;6.35;68.97
40117;BME280;25829;50.228;18.936;2023-02-17T13:39:59;98540.59;;;6.42;68.67
40117;BME280;25829;50.228;18.936;2023-02-17T13:43:14;98530.94;;;6.42;68.85
40117;BME280;25829;50.228;18.936;2023-02-17T14:18:40;98499.31;;;6.44;69.11
40117;BME280;25829;50.228;18.936;2023-02-17T14:22:04;98497.59;;;6.51;69.29
40117;BME280;25829;50.228;18.936;2023-02-17T14:25:11;98489.56;;;6.52;68.76
40117;BME280;25829;50.228;18.936;2023-02-17T14:28:18;98488.53;;;6.53;68.73
40117;BME280;25829;50.228;18.936;2023-02-17T14:31:20;98483.03;;;6.48;69.05
40117;BME280;25829;50.228;18.936;2023-02-17T14:34:27;98480.44;;;6.48;69.22
40117;BME280;25829;50.228;18.936;2023-02-17T14:37:28;98477.50;;;6.43;69.47
40117;BME280;25829;50.228;18.936;2023-02-17T14:40:31;98460.53;;;6.39;69.42
40117;BME280;25829;50.228;18.936;2023-02-17T14:43:32;98461.91;;;6.35;69.60
40117;BME280;25829;50.228;18.936;2023-02-17T14:46:33;98451.97;;;6.30;69.79
40117;BME280;25829;50.228;18.936;2023-02-17T14:49:34;98455.09;;;6.26;70.38
40117;BME280;25829;50.228;18.936;2023-02-17T14:52:44;98446.63;;;6.24;70.96
40117;BME280;25829;50.228;18.936;2023-02-17T14:55:52;98448.94;;;6.19;71.38
40117;BME280;25829;50.228;18.936;2023-02-17T14:58:56;98440.84;;;6.14;71.50
40117;BME280;25829;50.228;18.936;2023-02-17T15:16:45;98424.38;;;6.05;72.35
40117;BME280;25829;50.228;18.936;2023-02-17T15:19:49;98412.94;;;6.06;72.16
40117;BME280;25829;50.228;18.936;2023-02-17T15:22:50;98410.66;;;6.03;72.43
40117;BME280;25829;50.228;18.936;2023-02-17T15:25:53;98398.38;;;6.03;72.19
40117;BME280;25829;50.228;18.936;2023-02-17T15:28:58;98386.75;;;6.06;72.29
40117;BME280;25829;50.228;18.936;2023-02-17T15:32:00;98373.44;;;6.07;72.20
40117;BME280;25829;50.228;18.936;2023-02-17T15:35:20;98386.00;;;6.12;72.40
40117;BME280;25829;50.228;18.936;2023-02-17T15:38:22;98371.47;;;6.10;72.54
40117;BME280;25829;50.228;18.936;2023-02-17T15:41:25;98362.81;;;6.09;71.96
40117;BME280;25829;50.228;18.936;2023-02-17T15:44:34;98364.69;;;6.15;72.13
40117;BME280;25829;50.228;18.936;2023-02-17T15:47:39;98356.03;;;6.15;71.67
40117;BME280;25829;50.228;18.936;2023-02-17T16:03:43;98342.28;;;6.27;71.85
40117;BME280;25829;50.228;18.936;2023-02-17T16:06:44;98330.63;;;6.30;71.85
40117;BME280;25829;50.228;18.936;2023-02-17T16:09:46;98333.69;;;6.34;72.06
40117;BME280;25829;50.228;18.936;2023-02-17T16:12:56;98340.19;;;6.38;72.50
40117;BME280;25829;50.228;18.936;2023-02-17T16:15:57;98338.38;;;6.38;72.43
40117;BME280;25829;50.228;18.936;2023-02-17T16:18:59;98339.19;;;6.39;72.75
40117;BME280;25829;50.228;18.936;2023-02-17T16:22:00;98347.06;;;6.39;72.80
40117;BME280;25829;50.228;18.936;2023-02-17T16:25:01;98325.94;;;6.40;72.40
40117;BME280;25829;50.228;18.936;2023-02-17T16:28:02;98324.09;;;6.41;72.75
40117;BME280;25829;50.228;18.936;2023-02-17T16:31:03;98302.94;;;6.42;72.87
40117;BME280;25829;50.228;18.936;2023-02-17T16:34:03;98290.66;;;6.43;73.09
40117;BME280;25829;50.228;18.936;2023-02-17T16:37:12;98283.06;;;6.48;72.84
40117;BME280;25829;50.228;18.936;2023-02-17T16:40:16;98281.88;;;6.50;72.80
40117;BME280;25829;50.228;18.936;2023-02-17T16:43:23;98274.84;;;6.51;72.61
40117;BME280;25829;50.228;18.936;2023-02-17T16:46:31;98274.06;;;6.57;72.18
40117;BME280;25829;50.228;18.936;2023-02-17T16:49:35;98273.09;;;6.58;72.58
40117;BME280;25829;50.228;18.936;2023-02-17T16:52:39;98265.22;;;6.58;72.52
40117;BME280;25829;50.228;18.936;2023-02-17T16:55:40;98269.09;;;6.62;72.14
40117;BME280;25829;50.228;18.936;2023-02-17T16:58:41;98254.81;;;6.65;72.07
40117;BME280;25829;50.228;18.936;2023-02-17T17:01:43;98259.06;;;6.66;72.12
40117;BME280;25829;50.228;18.936;2023-02-17T17:04:43;98253.22;;;6.70;72.41
40117;BME280;25829;50.228;18.936;2023-02-17T17:07:45;98243.19;;;6.74;72.69
40117;BME280;25829;50.228;18.936;2023-02-17T17:10:46;98239.59;;;6.75;72.09
40117;BME280;25829;50.228;18.936;2023-02-17T17:13:50;98244.41;;;6.78;71.74
40117;BME280;25829;50.228;18.936;2023-02-17T17:16:57;98237.00;;;6.82;72.00
40117;BME280;25829;50.228;18.936;2023-02-17T17:20:00;98225.91;;;6.79;72.25
40117;BME280;25829;50.228;18.936;2023-02-17T17:23:10;98226.97;;;6.85;71.96
40117;BME280;25829;50.228;18.936;2023-02-17T17:26:17;98221.53;;;6.87;71.99
40117;BME280;25829;50.228;18.936;2023-02-17T17:29:19;98234.84;;;6.92;72.01
40117;BME280;25829;50.228;18.936;2023-02-17T17:32:20;98220.94;;;6.91;72.18
40117;BME280;25829;50.228;18.936;2023-02-17T17:35:24;98226.81;;;6.93;72.01
40117;BME280;25829;50.228;18.936;2023-02-17T17:38:25;98231.88;;;6.95;72.37
40117;BME280;25829;50.228;18.936;2023-02-17T17:41:27;98236.94;;;6.96;72.01
40117;BME280;25829;50.228;18.936;2023-02-17T17:44:28;98234.09;;;6.98;71.89
40117;BME280;25829;50.228;18.936;2023-02-17T17:47:29;98236.72;;;6.98;72.78
40117;BME280;25829;50.228;18.936;2023-02-17T18:04:06;98220.63;;;7.01;73.31
40117;BME280;25829;50.228;18.936;2023-02-17T18:07:08;98214.56;;;7.00;73.91
40117;BME280;25829;50.228;18.936;2023-02-17T18:10:10;98211.69;;;6.95;74.15
40117;BME280;25829;50.228;18.936;2023-02-17T18:13:12;98228.63;;;6.93;74.63
40117;BME280;25829;50.228;18.936;2023-02-17T18:16:17;98222.59;;;6.92;74.85
40117;BME280;25829;50.228;18.936;2023-02-17T18:19:19;98219.34;;;6.90;75.15
40117;BME280;25829;50.228;18.936;2023-02-17T18:22:23;98210.81;;;6.88;75.18
40117;BME280;25829;50.228;18.936;2023-02-17T18:25:24;98210.66;;;6.90;75.12
40117;BME280;25829;50.228;18.936;2023-02-17T18:28:27;98205.84;;;6.93;74.96
40117;BME280;25829;50.228;18.936;2023-02-17T18:31:28;98195.34;;;6.93;75.45
40117;BME280;25829;50.228;18.936;2023-02-17T18:34:28;98212.53;;;6.96;75.06
40117;BME280;25829;50.228;18.936;2023-02-17T18:37:29;98207.06;;;6.97;74.95
40117;BME280;25829;50.228;18.936;2023-02-17T18:40:30;98212.75;;;7.01;74.82
40117;BME280;25829;50.228;18.936;2023-02-17T18:43:32;98212.75;;;7.01;75.16
40117;BME280;25829;50.228;18.936;2023-02-17T18:46:33;98219.59;;;7.02;75.28
40117;BME280;25829;50.228;18.936;2023-02-17T18:49:34;98216.81;;;7.03;74.65
40117;BME280;25829;50.228;18.936;2023-02-17T18:52:37;98231.16;;;7.08;74.48
40117;BME280;25829;50.228;18.936;2023-02-17T18:55:37;98222.91;;;7.11;74.64
40117;BME280;25829;50.228;18.936;2023-02-17T18:58:39;98220.72;;;7.14;74.39
40117;BME280;25829;50.228;18.936;2023-02-17T19:01:40;98225.75;;;7.16;74.52
40117;BME280;25829;50.228;18.936;2023-02-17T19:04:42;98229.03;;;7.18;74.19
40117;BME280;25829;50.228;18.936;2023-02-17T19:07:43;98224.41;;;7.20;74.41
40117;BME280;25829;50.228;18.936;2023-02-17T19:10:44;98219.75;;;7.22;74.52
40117;BME280;25829;50.228;18.936;2023-02-17T19:13:45;98227.44;;;7.23;74.63
40117;BME280;25829;50.228;18.936;2023-02-17T19:16:45;98238.94;;;7.22;74.35
40117;BME280;25829;50.228;18.936;2023-02-17T19:19:46;98237.13;;;7.23;74.10